Time;durP1;ratioP1;P1;durP2;ratioP2;P2;SDS_P1;SDS_P2;PMS_P1;PMS_P2;Temp;Humidity;BMP_temperature;BMP_pressure;BME280_temperature;BME280_humidity;BME280_pressure;Samples;Min_cycle;Max_cycle;Signal;HPM_P1;HPM_P2
2022/10/05 00:01:34;;;;;;;11.02;7.00;;;10.70;99.90;;;9.77;100.00;97872.34;5091097;28;20401;-76
2022/10/05 00:04:14;;;;;;;11.45;7.43;;;10.80;99.90;;;9.78;100.00;97874.75;5090738;28;20502;-76
2022/10/05 00:06:41;;;;;;;12.93;7.65;;;10.80;99.90;;;9.79;100.00;97863.13;5091252;28;20430;-75
2022/10/05 00:09:14;;;;;;;14.30;8.07;;;10.80;99.90;;;9.78;100.00;97866.81;5091300;28;20911;-75
2022/10/05 00:11:40;;;;;;;10.80;7.50;;;10.80;99.90;;;9.78;100.00;97868.66;5090981;28;20927;-75
2022/10/05 00:14:14;;;;;;;13.83;7.93;;;10.80;99.90;;;9.76;100.00;97863.63;5090630;28;20394;-75
2022/10/05 00:16:40;;;;;;;10.13;7.25;;;10.80;99.90;;;9.75;100.00;97875.22;5090957;28;20455;-75
2022/10/05 00:19:16;;;;;;;13.18;7.30;;;10.80;99.90;;;9.71;100.00;97874.88;5091008;28;20401;-75
2022/10/05 00:21:42;;;;;;;12.73;7.55;;;10.70;99.90;;;9.68;100.00;97875.34;5088262;28;20756;-75
2022/10/05 00:24:09;;;;;;;10.47;6.93;;;10.70;99.90;;;9.68;100.00;97870.06;5090497;28;20401;-75
2022/10/05 00:26:35;;;;;;;12.85;8.63;;;10.70;99.90;;;9.68;100.00;97866.63;5090775;28;20390;-76
2022/10/05 00:29:15;;;;;;;11.60;7.88;;;10.70;99.90;;;9.70;100.00;97864.53;5090786;28;20441;-76
2022/10/05 00:31:41;;;;;;;12.47;8.60;;;10.70;99.90;;;9.67;100.00;97868.47;5090035;28;20462;-75
2022/10/05 00:34:08;;;;;;;13.77;8.02;;;10.70;99.90;;;9.67;100.00;97865.00;5090191;28;20524;-76
2022/10/05 00:36:36;;;;;;;11.40;8.10;;;10.70;99.90;;;9.62;100.00;97865.69;5090776;28;20895;-75
2022/10/05 00:39:02;;;;;;;16.08;8.50;;;10.70;99.90;;;9.61;100.00;97863.31;5087937;28;20867;-75
2022/10/05 00:41:41;;;;;;;15.15;8.13;;;10.60;99.90;;;9.58;100.00;97859.28;5090274;28;20458;-76
2022/10/05 00:44:38;;;;;;;14.00;8.18;;;10.60;99.90;;;9.57;100.00;97859.50;5088062;28;20440;-75
2022/10/05 00:47:20;;;;;;;11.60;7.47;;;10.60;99.90;;;9.51;100.00;97863.09;5088124;28;20421;-75
2022/10/05 00:50:21;;;;;;;10.48;7.30;;;10.50;99.90;;;9.45;100.00;97854.25;5088235;28;20412;-76
2022/10/05 00:52:56;;;;;;;13.07;7.57;;;10.50;99.90;;;9.43;100.00;97852.88;5077771;28;20509;-75
2022/10/05 00:55:36;;;;;;;12.23;7.50;;;10.50;99.90;;;9.40;100.00;97863.91;5087688;28;20473;-76
2022/10/05 00:58:16;;;;;;;11.15;7.70;;;10.40;99.90;;;9.39;100.00;97857.03;5090322;28;20871;-75
2022/10/05 01:00:53;;;;;;;10.52;7.00;;;10.40;99.90;;;9.35;100.00;97859.31;5090285;28;20397;-75
2022/10/05 01:03:31;;;;;;;12.80;8.10;;;10.40;99.90;;;9.31;100.00;97856.34;5089611;28;20402;-75
2022/10/05 01:06:10;;;;;;;13.98;8.00;;;10.30;99.90;;;9.31;100.00;97858.19;5090249;28;20834;-76
2022/10/05 01:08:50;;;;;;;11.23;7.90;;;10.30;99.90;;;9.29;100.00;97853.13;5089345;28;20395;-75
2022/10/05 01:11:25;;;;;;;13.77;7.82;;;10.30;99.90;;;9.27;100.00;97863.09;5089181;28;20421;-75
2022/10/05 01:13:57;;;;;;;10.50;7.20;;;10.30;99.90;;;9.23;100.00;97854.03;5088021;28;20398;-75
2022/10/05 01:16:29;;;;;;;14.10;7.57;;;10.30;99.90;;;9.19;100.00;97855.53;5087478;28;20448;-75
2022/10/05 01:19:05;;;;;;;8.73;7.05;;;10.30;99.90;;;9.17;100.00;97852.31;5090066;28;20439;-75
2022/10/05 01:21:41;;;;;;;10.68;7.57;;;10.20;99.90;;;9.17;100.00;97859.44;5088486;28;20429;-75
2022/10/05 01:24:40;;;;;;;14.40;8.40;;;10.20;99.90;;;9.16;100.00;97848.09;5087471;28;20489;-75
2022/10/05 01:27:20;;;;;;;11.30;8.00;;;10.20;99.90;;;9.16;100.00;97850.72;5078229;28;20440;-75
2022/10/05 01:29:58;;;;;;;13.80;8.38;;;10.20;99.90;;;9.14;100.00;97841.41;5080447;28;20398;-75
2022/10/05 01:32:32;;;;;;;10.45;7.63;;;10.20;99.90;;;9.12;100.00;97839.00;5086998;28;20517;-75
2022/10/05 01:35:11;;;;;;;10.38;8.13;;;10.20;99.90;;;9.12;100.00;97840.84;5088221;28;20493;-75
2022/10/05 01:37:50;;;;;;;12.85;7.80;;;10.10;99.90;;;9.09;100.00;97836.84;5089895;28;20944;-75
2022/10/05 01:40:27;;;;;;;16.13;8.83;;;10.10;99.90;;;9.11;100.00;97839.22;5088869;28;20413;-75
2022/10/05 01:43:09;;;;;;;11.98;8.43;;;10.10;99.90;;;9.12;100.00;97839.00;5091261;28;20434;-75
2022/10/05 01:45:51;;;;;;;14.32;8.82;;;10.10;99.90;;;9.13;100.00;97839.81;5092828;28;20413;-75
2022/10/05 01:48:29;;;;;;;15.98;9.50;;;10.20;99.90;;;9.13;100.00;97830.03;5093024;28;20472;-75
2022/10/05 01:51:10;;;;;;;14.33;9.63;;;10.20;99.90;;;9.14;100.00;97836.13;5108408;28;20896;-75
2022/10/05 01:53:53;;;;;;;13.45;9.10;;;10.20;99.90;;;9.13;100.00;97831.88;5092317;28;20886;-75
2022/10/05 01:56:28;;;;;;;16.63;10.20;;;10.20;99.90;;;9.14;100.00;97825.56;5093120;28;20402;-75
2022/10/05 01:59:04;;;;;;;14.13;8.90;;;10.20;99.90;;;9.14;100.00;97823.72;5093693;28;20398;-75
2022/10/05 02:01:42;;;;;;;18.00;9.60;;;10.20;99.90;;;9.15;100.00;97825.34;5091750;28;20390;-75
2022/10/05 02:04:14;;;;;;;13.77;9.50;;;10.20;99.90;;;9.13;100.00;97816.03;5090999;28;20420;-75
2022/10/05 02:06:44;;;;;;;14.07;9.90;;;10.20;99.90;;;9.13;100.00;97821.31;5093528;28;20404;-75
2022/10/05 02:09:17;;;;;;;14.63;10.13;;;10.20;99.90;;;9.14;100.00;97820.28;5093509;28;20523;-74
2022/10/05 02:11:48;;;;;;;16.42;10.88;;;10.10;99.90;;;9.17;100.00;97814.56;5093248;28;20409;-75
2022/10/05 02:14:19;;;;;;;16.02;9.20;;;10.20;99.90;;;9.17;100.00;97825.13;5092911;28;20500;-75
2022/10/05 02:16:50;;;;;;;12.50;9.10;;;10.20;99.90;;;9.15;100.00;97825.34;5090846;28;20398;-75
2022/10/05 02:19:20;;;;;;;16.27;9.40;;;10.20;99.90;;;9.15;100.00;97824.53;5093449;28;20466;-75
2022/10/05 02:21:52;;;;;;;13.45;9.05;;;10.20;99.90;;;9.13;100.00;97819.47;5089423;28;20435;-75
2022/10/05 02:24:23;;;;;;;14.25;9.25;;;10.10;99.90;;;9.14;100.00;97805.25;5092735;28;20420;-75
2022/10/05 02:26:51;;;;;;;14.68;10.13;;;10.10;99.90;;;9.14;100.00;97801.78;5091155;28;20398;-75
2022/10/05 02:29:21;;;;;;;16.10;10.02;;;10.20;99.90;;;9.17;100.00;97810.03;5093166;28;20451;-75
2022/10/05 02:31:54;;;;;;;12.60;9.57;;;10.20;99.90;;;9.19;100.00;97809.81;5090583;28;20413;-75
2022/10/05 02:34:26;;;;;;;18.57;10.53;;;10.20;99.90;;;9.25;100.00;97812.34;5092470;28;20570;-75
2022/10/05 02:37:13;;;;;;;17.00;10.33;;;10.20;99.90;;;9.35;100.00;97808.31;5092915;28;20429;-75
2022/10/05 02:39:50;;;;;;;14.02;9.70;;;10.30;99.90;;;9.40;100.00;97803.16;5090926;28;20780;-75
2022/10/05 02:42:25;;;;;;;13.38;9.55;;;10.40;99.90;;;9.47;100.00;97806.47;5092706;28;20858;-75
2022/10/05 02:45:01;;;;;;;13.90;9.55;;;10.40;99.90;;;9.54;100.00;97801.84;5090723;28;20481;-75
2022/10/05 02:47:40;;;;;;;15.20;9.18;;;10.50;99.90;;;9.59;100.00;97800.09;5106227;28;20441;-75
2022/10/05 02:50:16;;;;;;;12.27;8.87;;;10.50;99.90;;;9.60;100.00;97799.06;5090342;28;20605;-75
2022/10/05 02:52:49;;;;;;;16.77;8.98;;;10.60;99.90;;;9.62;100.00;97812.06;5090077;28;20572;-75
2022/10/05 02:55:23;;;;;;;15.45;9.65;;;10.60;99.90;;;9.63;100.00;97817.09;5092690;28;20401;-75
2022/10/05 02:57:57;;;;;;;17.20;10.90;;;10.60;99.90;;;9.69;100.00;97820.66;5090585;28;20394;-75
2022/10/05 03:00:24;;;;;;;16.10;9.57;;;10.60;99.90;;;9.69;100.00;97820.66;5092646;28;20752;-75
2022/10/05 03:03:00;;;;;;;17.10;10.02;;;10.60;99.90;;;9.71;100.00;97821.19;5091915;28;20944;-75
2022/10/05 03:05:32;;;;;;;15.07;9.50;;;10.70;99.90;;;9.68;100.00;97822.50;5090164;28;20493;-75
2022/10/05 03:08:04;;;;;;;16.17;9.55;;;10.60;99.90;;;9.65;100.00;97817.66;5092424;28;20390;-75
2022/10/05 03:10:41;;;;;;;14.27;9.63;;;10.60;99.90;;;9.63;100.00;97827.66;5090326;28;20406;-75
2022/10/05 03:13:19;;;;;;;18.88;10.75;;;10.60;99.90;;;9.63;100.00;97819.72;5089386;28;20927;-75
2022/10/05 03:16:06;;;;;;;16.08;10.73;;;10.60;99.90;;;9.66;100.00;97818.47;5105287;28;20919;-75
2022/10/05 03:18:47;;;;;;;17.30;10.93;;;10.60;99.90;;;9.73;100.00;97815.69;5090583;28;20459;-75
2022/10/05 03:21:32;;;;;;;16.40;10.80;;;10.60;99.90;;;9.78;100.00;97815.78;5081713;28;20405;-75
2022/10/05 03:24:22;;;;;;;16.05;11.13;;;10.70;99.90;;;9.80;100.00;97801.28;5080677;28;20394;-75
2022/10/05 03:26:57;;;;;;;18.77;12.23;;;10.80;99.90;;;9.93;100.00;97808.94;5089948;28;20406;-75
2022/10/05 03:29:39;;;;;;;18.45;11.18;;;10.80;99.90;;;9.91;100.00;97799.66;5092049;28;20398;-75
2022/10/05 03:32:16;;;;;;;15.18;11.05;;;10.90;99.90;;;9.92;100.00;97795.97;5089208;28;20489;-75
2022/10/05 03:34:49;;;;;;;24.08;14.48;;;10.90;99.90;;;9.97;100.00;97793.41;5091452;28;20404;-75
2022/10/05 03:37:26;;;;;;;20.03;11.43;;;10.90;99.90;;;9.94;100.00;97780.66;5091876;28;20451;-75
2022/10/05 03:40:03;;;;;;;17.35;11.75;;;10.90;99.90;;;10.02;100.00;97775.78;5090183;28;20394;-75
2022/10/05 03:42:45;;;;;;;18.83;12.65;;;10.90;99.90;;;10.10;100.00;97779.88;5102827;22;20935;-78
2022/10/05 03:45:24;;;;;;;20.55;12.77;;;11.00;99.90;;;10.06;100.00;97776.13;5082184;28;20931;-78
2022/10/05 03:48:00;;;;;;;19.90;12.18;;;11.00;99.90;;;10.02;100.00;97774.97;5083521;28;20392;-78
2022/10/05 03:50:43;;;;;;;19.33;12.98;;;11.00;99.90;;;10.03;100.00;97776.59;5077148;28;20500;-78
2022/10/05 03:53:17;;;;;;;26.02;14.82;;;10.90;99.90;;;10.04;100.00;97778.19;5066034;28;20428;-78
2022/10/05 03:55:49;;;;;;;21.75;14.15;;;11.00;99.90;;;10.06;100.00;97773.47;5053122;28;20399;-80
2022/10/05 03:58:20;;;;;;;23.38;14.82;;;11.00;99.90;;;10.03;100.00;97772.09;5070405;28;20945;-77
2022/10/05 04:00:51;;;;;;;22.00;14.13;;;11.00;99.90;;;10.02;100.00;97764.41;5068227;28;20396;-79
2022/10/05 04:03:24;;;;;;;20.00;14.18;;;10.90;99.90;;;10.08;100.00;97772.19;5052186;28;20400;-79
2022/10/05 04:05:58;;;;;;;21.50;14.18;;;11.00;99.90;;;10.15;100.00;97766.75;5067238;28;20403;-80
2022/10/05 04:08:36;;;;;;;19.42;13.90;;;11.00;99.90;;;10.14;100.00;97764.38;5070184;28;20789;-80
2022/10/05 04:11:08;;;;;;;20.75;13.38;;;11.10;99.90;;;10.17;100.00;97764.69;5052761;28;20968;-80
2022/10/05 04:13:42;;;;;;;18.60;12.80;;;11.10;99.90;;;10.16;100.00;97767.53;5069680;28;20400;-81
2022/10/05 04:16:13;;;;;;;16.75;12.65;;;11.10;99.90;;;10.14;100.00;97767.00;5068656;28;20750;-80
2022/10/05 04:18:44;;;;;;;18.88;13.27;;;11.00;99.90;;;10.09;100.00;97770.34;5068139;28;20446;-80
2022/10/05 04:21:19;;;;;;;22.70;14.30;;;11.00;99.90;;;10.06;100.00;97774.28;5065873;28;20411;-81
2022/10/05 04:23:57;;;;;;;21.92;13.55;;;11.00;99.90;;;10.12;100.00;97772.53;5064345;28;20427;-81
2022/10/05 04:26:33;;;;;;;22.37;14.07;;;11.00;99.90;;;10.10;100.00;97764.03;5066134;28;20638;-79
2022/10/05 04:29:10;;;;;;;19.13;12.68;;;11.00;99.90;;;10.08;100.00;97763.44;5066810;28;20415;-77
2022/10/05 04:31:53;;;;;;;16.95;12.65;;;11.00;99.90;;;10.04;100.00;97759.69;5067765;28;20423;-79
2022/10/05 04:34:42;;;;;;;22.10;12.82;;;11.00;99.90;;;10.02;100.00;97756.47;5067948;28;20931;-82
2022/10/05 04:37:19;;;;;;;19.05;12.95;;;11.00;99.90;;;9.93;100.00;97756.06;5065722;28;20415;-82
2022/10/05 04:39:52;;;;;;;19.15;12.75;;;10.90;99.90;;;9.96;100.00;97754.78;5064576;28;20823;-82
2022/10/05 04:42:30;;;;;;;20.15;12.52;;;10.90;99.90;;;9.93;100.00;97756.06;5069820;28;20407;-80
2022/10/05 04:45:09;;;;;;;24.47;14.13;;;10.90;99.90;;;9.93;100.00;97749.97;5068089;28;20471;-81
2022/10/05 04:48:09;;;;;;;18.98;12.93;;;10.90;99.90;;;9.92;100.00;97756.31;5068879;28;20522;-81
2022/10/05 04:50:53;;;;;;;18.30;12.48;;;10.90;99.90;;;9.92;100.00;97758.97;5059246;28;20399;-81
2022/10/05 04:53:32;;;;;;;20.00;12.73;;;10.90;99.90;;;9.87;100.00;97756.19;5068725;28;20415;-81
2022/10/05 04:56:08;;;;;;;17.42;12.40;;;10.80;99.90;;;9.84;100.00;97775.19;5069144;28;20400;-81
2022/10/05 04:58:55;;;;;;;18.90;12.47;;;10.80;99.90;;;9.80;100.00;97771.41;5068576;28;20403;-80
2022/10/05 05:01:46;;;;;;;20.95;11.93;;;10.80;99.90;;;9.75;100.00;97780.06;5068962;28;20392;-82
2022/10/05 05:04:35;;;;;;;17.23;11.90;;;10.70;99.90;;;9.70;100.00;97778.09;5068467;28;20400;-82
2022/10/05 05:07:17;;;;;;;19.65;13.07;;;10.60;99.90;;;9.65;100.00;97778.00;5067749;28;20414;-80
2022/10/05 05:10:17;;;;;;;21.55;14.07;;;10.60;99.90;;;9.71;100.00;97777.06;5068168;28;20498;-80
2022/10/05 05:12:58;;;;;;;20.15;14.27;;;10.70;99.90;;;9.83;100.00;97792.91;5067189;28;20892;-80
2022/10/05 05:15:45;;;;;;;22.27;14.27;;;10.70;99.90;;;9.91;100.00;97786.44;5068174;28;20757;-78
2022/10/05 05:18:48;;;;;;;22.23;13.98;;;10.80;99.90;;;9.86;100.00;97796.91;5065923;28;20404;-79
2022/10/05 05:21:33;;;;;;;22.40;14.55;;;10.80;99.90;;;9.86;100.00;97795.06;5067228;28;20396;-77
2022/10/05 05:24:10;;;;;;;18.05;12.45;;;10.80;99.90;;;9.82;100.00;97799.22;5050579;28;20774;-76
2022/10/05 05:26:57;;;;;;;19.87;13.07;;;10.80;99.90;;;9.76;100.00;97792.25;5068529;28;20407;-78
2022/10/05 05:29:36;;;;;;;20.38;13.25;;;10.70;99.90;;;9.72;100.00;97791.09;5069436;28;20403;-77
2022/10/05 05:32:16;;;;;;;23.70;13.85;;;10.60;99.90;;;9.68;100.00;97789.97;5069545;28;20519;-78
2022/10/05 05:35:03;;;;;;;21.08;13.52;;;10.60;99.90;;;9.66;100.00;97798.13;5069367;28;20662;-78
2022/10/05 05:37:35;;;;;;;21.90;13.40;;;10.60;99.90;;;9.63;100.00;97809.16;5067443;28;20439;-80
2022/10/05 05:40:13;;;;;;;19.25;13.25;;;10.60;99.90;;;9.57;100.00;97804.81;5067597;28;20896;-78
2022/10/05 05:42:53;;;;;;;20.00;12.40;;;10.50;99.90;;;9.53;100.00;97814.25;5067046;28;20973;-79
2022/10/05 05:45:33;;;;;;;20.08;12.52;;;10.50;99.90;;;9.49;100.00;97809.66;5062885;28;20450;-78
2022/10/05 05:48:11;;;;;;;18.83;12.13;;;10.50;99.90;;;9.44;100.00;97807.72;5067586;28;20391;-77
2022/10/05 05:50:54;;;;;;;18.27;11.48;;;10.40;99.90;;;9.45;100.00;97804.06;5067356;28;20400;-77
2022/10/05 05:53:28;;;;;;;18.38;11.68;;;10.40;99.90;;;9.43;100.00;97815.88;5067144;28;20415;-78
2022/10/05 05:56:00;;;;;;;20.42;14.07;;;10.40;99.90;;;9.44;100.00;97814.84;5066959;28;20482;-76
2022/10/05 05:58:34;;;;;;;19.77;12.32;;;10.40;99.90;;;9.40;100.00;97819.00;5069662;28;20430;-78
2022/10/05 06:01:06;;;;;;;22.88;12.50;;;10.40;99.90;;;9.39;100.00;97827.97;5067716;28;20404;-78
2022/10/05 06:03:38;;;;;;;20.98;12.48;;;10.40;99.90;;;9.36;100.00;97821.28;5066185;28;21021;-79
2022/10/05 06:06:10;;;;;;;17.42;12.05;;;10.40;99.90;;;9.36;100.00;97823.13;5065093;28;20407;-78
2022/10/05 06:08:43;;;;;;;23.70;15.48;;;10.30;99.90;;;9.45;100.00;97825.19;5068919;28;20404;-78
2022/10/05 06:11:16;;;;;;;24.00;14.95;;;10.40;99.90;;;9.46;100.00;97828.63;5066542;28;20420;-78
2022/10/05 06:13:45;;;;;;;20.30;14.30;;;10.40;99.90;;;9.47;100.00;97827.59;5064734;28;20411;-78
2022/10/05 06:16:19;;;;;;;21.48;14.57;;;10.40;99.90;;;9.46;100.00;97837.38;5066877;28;20426;-78
2022/10/05 06:18:50;;;;;;;24.17;15.13;;;10.40;99.90;;;9.48;100.00;97845.84;5064145;28;20515;-78
2022/10/05 06:21:24;;;;;;;22.50;15.53;;;10.40;99.90;;;9.48;100.00;97852.97;5064947;28;20757;-78
2022/10/05 06:23:57;;;;;;;21.58;15.13;;;10.40;99.90;;;9.48;100.00;97859.06;5045441;28;20419;-78
2022/10/05 06:27:08;;;;;;;22.42;14.73;;;10.40;99.90;;;9.50;100.00;97864.13;5064637;28;20413;-77
2022/10/05 06:29:53;;;;;;;23.63;15.27;;;10.50;99.90;;;9.51;100.00;97857.81;5068976;28;20426;-78
2022/10/05 06:32:28;;;;;;;22.30;14.73;;;10.50;99.90;;;9.52;100.00;97859.41;5069714;28;20424;-76
2022/10/05 06:35:06;;;;;;;22.40;15.00;;;10.50;99.90;;;9.51;100.00;97861.25;5059497;28;20544;-77
2022/10/05 06:37:54;;;;;;;21.08;14.50;;;10.50;99.90;;;9.54;100.00;97865.28;5063654;28;20407;-78
2022/10/05 06:40:37;;;;;;;22.45;14.63;;;10.50;99.90;;;9.60;100.00;97861.69;5070019;28;20893;-80
2022/10/05 06:43:23;;;;;;;19.02;13.52;;;10.50;99.90;;;9.68;100.00;97864.78;5071133;28;20404;-79
2022/10/05 06:46:02;;;;;;;23.70;14.23;;;10.60;99.90;;;9.76;100.00;97865.47;5070111;28;20544;-79
2022/10/05 06:48:45;;;;;;;20.20;12.80;;;10.70;99.90;;;9.84;100.00;97873.84;5069629;28;20402;-80
2022/10/05 06:51:22;;;;;;;18.05;12.93;;;10.80;99.90;;;9.92;100.00;97867.38;5064218;28;20494;-79
2022/10/05 06:54:02;;;;;;;18.08;12.48;;;10.80;99.90;;;9.99;100.00;97873.31;5069181;28;20760;-80
2022/10/05 06:56:34;;;;;;;20.70;12.35;;;10.90;99.90;;;10.05;100.00;97872.38;5061018;28;20423;-79
2022/10/05 06:59:08;;;;;;;16.70;11.90;;;11.00;99.90;;;10.09;100.00;97869.03;5068540;28;20408;-81
2022/10/05 07:01:52;;;;;;;17.52;12.77;;;11.00;99.90;;;10.15;100.00;97875.19;5065511;28;20552;-85
2022/10/05 07:04:46;;;;;;;17.95;12.80;;;11.10;99.90;;;10.24;100.00;97870.38;5064300;28;20419;-79
2022/10/05 07:07:22;;;;;;;19.58;12.35;;;11.10;99.90;;;10.31;100.00;97876.31;5029576;28;20429;-79
2022/10/05 07:10:04;;;;;;;16.77;12.20;;;11.20;99.90;;;10.38;100.00;97882.28;5062806;28;20448;-79
2022/10/05 07:12:43;;;;;;;15.57;11.70;;;11.30;99.90;;;10.43;100.00;97885.84;5052601;28;20793;-78
2022/10/05 07:15:35;;;;;;;18.13;12.02;;;11.30;99.90;;;10.48;100.00;97882.47;5070767;28;20399;-85
2022/10/05 07:18:46;;;;;;;19.13;11.13;;;11.40;99.90;;;10.51;100.00;97895.22;5070831;28;20408;-91
2022/10/05 07:21:26;;;;;;;17.27;11.80;;;11.40;99.90;;;10.54;100.00;97888.63;5051356;28;20421;-87
2022/10/05 07:24:03;;;;;;;18.85;12.23;;;11.40;99.90;;;10.56;100.00;97891.88;5033890;28;20515;-82
2022/10/05 07:26:37;;;;;;;17.25;11.60;;;11.50;99.90;;;10.60;100.00;97893.00;5052874;28;20393;-84
2022/10/05 07:29:22;;;;;;;21.67;12.38;;;11.50;99.90;;;10.64;100.00;97896.78;5070125;28;20404;-84
2022/10/05 07:32:02;;;;;;;15.63;11.25;;;11.50;99.90;;;10.66;100.00;97890.22;5054157;28;20503;-78
2022/10/05 07:34:46;;;;;;;17.58;11.55;;;11.50;99.90;;;10.71;100.00;97894.78;5072533;28;20400;-83
2022/10/05 07:40:13;;;;;;;15.77;11.90;;;11.60;99.90;;;10.79;100.00;97895.19;5071392;28;20516;-79
2022/10/05 07:42:55;;;;;;;15.80;11.93;;;11.70;99.90;;;10.85;100.00;97899.53;5071342;28;20412;-81
2022/10/05 07:45:28;;;;;;;17.60;11.57;;;11.70;99.90;;;10.90;100.00;97903.31;5072098;28;20482;-81
2022/10/05 07:47:55;;;;;;;18.30;11.77;;;11.80;99.90;;;10.95;100.00;97903.38;5058679;28;20408;-83
2022/10/05 07:50:28;;;;;;;16.90;11.47;;;11.80;99.90;;;10.97;100.00;97907.41;5078637;28;20412;-85
2022/10/05 07:52:59;;;;;;;15.60;11.63;;;11.90;99.90;;;11.02;100.00;97914.63;5070187;28;20422;-83
2022/10/05 07:55:31;;;;;;;15.57;11.32;;;11.90;99.90;;;11.06;100.00;97913.88;5064981;28;20456;-81
2022/10/05 07:58:11;;;;;;;17.95;11.45;;;12.00;99.90;;;11.11;100.00;97913.19;5077249;28;20415;-79
2022/10/05 08:01:02;;;;;;;18.67;11.60;;;12.00;99.90;;;11.16;100.00;97913.25;5071204;28;20399;-79
2022/10/05 08:03:39;;;;;;;16.00;10.65;;;12.00;99.90;;;11.20;100.00;97919.69;5070978;28;20442;-84
2022/10/05 08:06:10;;;;;;;17.23;11.30;;;12.10;99.90;;;11.26;100.00;97910.78;5071355;28;20548;-86
2022/10/05 08:08:52;;;;;;;18.23;12.15;;;12.10;99.90;;;11.30;100.00;97908.41;5070205;28;20414;-79
2022/10/05 08:11:26;;;;;;;18.38;11.93;;;12.20;99.90;;;11.34;100.00;97910.38;5071286;28;20431;-84
2022/10/05 08:13:59;;;;;;;15.27;11.40;;;12.20;99.90;;;11.40;100.00;97921.84;5070399;28;20485;-78
2022/10/05 08:16:34;;;;;;;19.90;11.90;;;12.30;99.90;;;11.46;100.00;97915.56;5070688;28;20403;-84
2022/10/05 08:19:08;;;;;;;16.10;11.25;;;12.30;99.90;;;11.52;100.00;97911.94;5071261;28;20495;-83
2022/10/05 08:21:41;;;;;;;16.60;11.40;;;12.40;99.90;;;11.59;100.00;97915.22;5069512;28;20415;-78
2022/10/05 08:24:32;;;;;;;19.20;12.48;;;12.40;99.90;;;11.65;100.00;97912.38;5070589;28;20428;-79
2022/10/05 08:27:04;;;;;;;18.40;10.93;;;12.40;99.90;;;11.71;100.00;97909.81;5057124;28;20466;-78
2022/10/05 08:29:37;;;;;;;13.48;10.48;;;12.50;99.90;;;11.77;100.00;97908.84;5052679;28;20912;-84
2022/10/05 08:32:11;;;;;;;16.80;11.43;;;12.60;99.90;;;11.82;100.00;97909.72;5070463;28;20491;-80
2022/10/05 08:34:48;;;;;;;16.75;10.80;;;12.60;99.90;;;11.87;100.00;97906.34;5052481;28;20436;-84
2022/10/05 08:37:25;;;;;;;15.50;10.07;;;12.70;99.90;;;11.93;100.00;97913.31;5070916;28;20402;-86
2022/10/05 08:39:59;;;;;;;16.27;10.32;;;12.70;99.90;;;11.99;100.00;97905.16;5071233;28;20395;-83
2022/10/05 08:42:58;;;;;;;14.00;9.83;;;12.80;99.90;;;12.07;100.00;97901.28;5069907;28;20416;-82
2022/10/05 08:45:50;;;;;;;16.13;9.80;;;12.90;99.90;;;12.18;100.00;97899.56;5051401;28;20789;-84
2022/10/05 08:49:01;;;;;;;15.77;9.32;;;13.00;99.90;;;12.27;100.00;97895.38;5068932;28;20407;-78
2022/10/05 08:52:19;;;;;;;13.73;9.43;;;13.10;99.90;;;12.36;100.00;97897.34;5044036;28;20415;-78
2022/10/05 08:55:32;;;;;;;13.45;9.43;;;13.20;99.90;;;12.48;100.00;97896.41;5069990;28;20508;-78
2022/10/05 08:58:43;;;;;;;12.80;9.20;;;13.30;99.90;;;12.58;100.00;97894.66;5069930;28;20411;-77
2022/10/05 09:01:19;;;;;;;12.27;8.70;;;13.40;99.90;;;12.66;100.00;97896.06;5070333;28;20407;-78
2022/10/05 09:04:15;;;;;;;14.02;8.98;;;13.50;99.90;;;12.77;100.00;97887.13;5069695;28;20475;-78
2022/10/05 09:07:29;;;;;;;14.82;8.95;;;13.50;99.90;;;12.89;100.00;97889.63;5068048;28;20443;-81
2022/10/05 09:10:53;;;;;;;11.60;8.13;;;13.60;99.90;;;12.97;100.00;97889.97;5034519;28;20978;-79
2022/10/05 09:14:00;;;;;;;10.93;7.82;;;13.70;99.90;;;13.08;100.00;97890.84;5062330;28;20429;-82
2022/10/05 09:17:00;;;;;;;11.50;7.67;;;13.80;99.90;;;13.20;100.00;97885.38;5062272;28;20522;-75
2022/10/05 09:19:50;;;;;;;11.73;7.20;;;13.90;99.90;;;13.36;100.00;97881.75;5053492;28;20929;-83
2022/10/05 09:22:38;;;;;;;9.40;6.72;;;14.00;99.90;;;13.49;100.00;97882.09;5070395;28;20896;-86
2022/10/05 09:25:20;;;;;;;8.02;5.75;;;14.20;99.90;;;13.67;100.00;97880.09;5065968;28;20440;-82
2022/10/05 09:27:55;;;;;;;10.18;6.28;;;14.30;99.90;;;13.80;100.00;97877.75;5057275;28;20402;-83
2022/10/05 09:30:39;;;;;;;9.27;5.63;;;14.50;99.90;;;13.95;100.00;97875.16;5069950;28;20419;-83
2022/10/05 09:33:47;;;;;;;14.32;6.43;;;14.60;99.90;;;14.06;100.00;97878.63;5068881;28;20920;-81
2022/10/05 09:37:04;;;;;;;8.02;5.25;;;14.80;99.90;;;14.30;100.00;97876.31;5062370;28;20400;-79
2022/10/05 09:40:18;;;;;;;9.88;5.00;;;14.90;99.90;;;14.48;100.00;97875.06;5062522;28;20407;-87
2022/10/05 09:43:40;;;;;;;9.20;4.67;;;15.10;99.90;;;14.61;100.00;97866.56;5083141;22;20439;-83
2022/10/05 09:46:38;;;;;;;10.85;4.63;;;15.20;99.90;;;14.82;100.00;97860.16;5051874;28;20414;-78
2022/10/05 09:49:56;;;;;;;9.85;5.20;;;15.40;99.90;;;15.02;100.00;97862.03;5069428;28;20395;-82
2022/10/05 09:53:06;;;;;;;7.30;4.70;;;15.60;99.90;;;15.26;100.00;97860.41;5064540;28;20515;-81
2022/10/05 09:56:13;;;;;;;7.68;4.80;;;15.90;99.90;;;15.53;100.00;97853.97;5042898;28;20898;-76
2022/10/05 09:59:13;;;;;;;8.35;4.72;;;16.20;99.90;;;15.78;100.00;97848.56;5042340;28;20405;-78
2022/10/05 10:02:28;;;;;;;8.82;4.70;;;16.40;99.90;;;15.91;100.00;97849.84;5042778;28;20416;-84
2022/10/05 10:05:19;;;;;;;8.38;4.82;;;16.50;99.90;;;15.89;100.00;97844.78;5050271;28;20424;-77
2022/10/05 10:08:20;;;;;;;10.07;4.57;;;16.50;99.90;;;15.92;100.00;97828.22;5062848;28;20406;-90
2022/10/05 10:11:11;;;;;;;6.47;4.45;;;16.50;99.90;;;15.94;100.00;97836.75;5037939;28;20399;-81
2022/10/05 10:14:16;;;;;;;9.27;4.70;;;16.50;99.90;;;15.98;100.00;97826.31;5031803;28;20411;-78
2022/10/05 10:17:14;;;;;;;11.02;5.57;;;16.60;99.90;;;15.99;98.33;97822.59;5046726;28;20421;-78
2022/10/05 10:20:11;;;;;;;12.45;5.70;;;16.60;99.90;;;16.04;96.46;97826.03;5047450;28;20426;-79
2022/10/05 10:23:16;;;;;;;10.40;4.57;;;16.70;99.90;;;16.19;98.63;97825.13;5051225;28;20405;-78
2022/10/05 10:26:15;;;;;;;11.80;5.43;;;16.70;99.90;;;16.21;94.17;97825.66;5044538;28;20409;-74
2022/10/05 10:29:15;;;;;;;6.90;3.53;;;16.80;99.90;;;16.62;92.44;97818.19;5044324;28;20513;-79
2022/10/05 10:32:15;;;;;;;2.95;1.55;;;17.10;99.90;;;16.64;88.74;97814.16;5043480;28;20509;-77
2022/10/05 10:35:17;;;;;;;3.85;1.80;;;17.30;99.90;;;16.97;88.78;97815.25;5051231;28;20882;-75
2022/10/05 10:38:28;;;;;;;3.30;1.60;;;17.60;99.90;;;17.09;86.01;97806.81;5049154;28;20439;-75
2022/10/05 10:41:41;;;;;;;4.95;1.90;;;17.70;99.90;;;17.29;84.14;97803.16;5051725;28;20759;-83
2022/10/05 10:44:54;;;;;;;2.60;1.58;;;17.80;99.90;;;17.21;87.71;97804.59;5051423;28;20448;-75
2022/10/05 10:47:50;;;;;;;3.25;1.85;;;17.80;99.90;;;17.29;89.25;97798.59;5051930;28;20417;-76
2022/10/05 10:51:13;;;;;;;3.60;1.67;;;17.80;99.90;;;17.45;86.67;97801.09;5027455;28;20497;-76
2022/10/05 10:54:27;;;;;;;6.30;1.70;;;18.00;99.90;;;17.71;79.15;97800.56;5032198;28;20490;-75
2022/10/05 10:57:02;;;;;;;2.90;1.80;;;18.30;99.90;;;17.89;80.23;97799.00;5033042;28;20391;-75
2022/10/05 11:00:27;;;;;;;2.00;1.60;;;18.50;99.90;;;17.93;77.70;97801.91;5032980;28;20399;-76
2022/10/05 11:03:54;;;;;;;2.10;1.30;;;18.60;99.90;;;17.88;77.24;97786.69;5032321;28;20391;-76
2022/10/05 11:06:56;;;;;;;1.92;1.30;;;18.60;99.90;;;17.98;77.61;97788.44;5012914;28;20431;-76
2022/10/05 11:09:55;;;;;;;3.00;1.60;;;18.60;99.90;;;18.34;79.02;97786.84;5028446;28;20411;-75
2022/10/05 11:13:20;;;;;;;4.13;1.43;;;18.80;99.90;;;18.26;83.12;97778.69;5032626;28;20496;-75
2022/10/05 11:16:33;;;;;;;4.20;1.53;;;18.80;99.90;;;18.15;78.29;97778.00;5032082;28;20966;-76